createdAt,value
2023-12-28T13:48:27.636Z,98603.41
2023-12-28T13:51:32.674Z,98604.25
2023-12-28T13:54:36.996Z,98601.03
2023-12-28T13:57:42.303Z,98611.31
2023-12-28T14:00:46.777Z,98606.41
2023-12-28T14:03:53.999Z,98615.72
2023-12-28T14:06:58.520Z,98616.31
2023-12-28T14:10:03.371Z,98624.34
2023-12-28T14:13:07.837Z,98619.97
2023-12-28T14:16:12.718Z,98619.88
2023-12-28T14:19:18.504Z,98619.47
2023-12-28T14:22:24.474Z,98625.09
2023-12-28T14:25:30.446Z,98624.56
2023-12-28T14:28:38.279Z,98626.69
2023-12-28T14:31:45.673Z,98617.28
2023-12-28T14:34:53.997Z,98624.59
2023-12-28T14:37:58.852Z,98624.88
2023-12-28T14:41:03.691Z,98622.34
2023-12-28T14:44:08.759Z,98620.66
2023-12-28T14:47:15.288Z,98611.44
2023-12-28T14:50:21.856Z,98616.50
2023-12-28T14:53:27.425Z,98614.56
2023-12-28T14:56:40.435Z,98614.47
2023-12-28T14:59:50.626Z,98613.06
2023-12-28T15:02:55.848Z,98624.00
2023-12-28T15:06:03.084Z,98629.63
2023-12-28T15:09:10.619Z,98627.94
2023-12-28T15:12:16.998Z,98634.25
2023-12-28T15:15:22.899Z,98625.84
2023-12-28T15:18:28.671Z,98619.28
2023-12-28T15:21:36.451Z,98641.03
2023-12-28T15:24:43.258Z,98637.25
2023-12-28T15:27:49.295Z,98635.69
2023-12-28T15:30:54.459Z,98638.50
2023-12-28T15:33:59.038Z,98638.81
2023-12-28T15:37:06.614Z,98634.88
2023-12-28T15:40:12.372Z,98635.84
2023-12-28T15:43:17.662Z,98636.41
2023-12-28T15:46:23.061Z,98634.72
2023-12-28T15:49:29.132Z,98642.38
2023-12-28T15:52:35.765Z,98642.13
2023-12-28T15:55:41.332Z,98638.16
2023-12-28T15:58:46.089Z,98636.03
2023-12-28T16:01:50.992Z,98631.25
2023-12-28T16:04:56.219Z,98626.63
2023-12-28T16:08:02.437Z,98634.09
2023-12-28T16:11:08.109Z,98627.47
2023-12-28T16:14:14.498Z,98626.34
2023-12-28T16:17:20.890Z,98631.09
2023-12-28T16:20:28.549Z,98627.44
2023-12-28T16:23:36.313Z,98630.69
2023-12-28T16:26:42.122Z,98628.53
2023-12-28T16:29:47.916Z,98629.47
2023-12-28T16:32:53.852Z,98626.94
2023-12-28T16:35:59.239Z,98616.34
2023-12-28T16:39:06.625Z,98632.59
2023-12-28T16:42:11.797Z,98620.84
2023-12-28T16:45:18.681Z,98623.94
2023-12-28T16:48:25.011Z,98633.13
2023-12-28T16:51:31.617Z,98615.78
2023-12-28T16:54:37.639Z,98614.06
2023-12-28T16:57:42.565Z,98617.13
2023-12-28T17:00:47.069Z,98612.25
2023-12-28T17:03:52.841Z,98607.91
2023-12-28T17:06:58.416Z,98603.09
2023-12-28T17:10:06.723Z,98600.56
2023-12-28T17:13:14.146Z,98599.78
2023-12-28T17:16:20.369Z,98603.69
2023-12-28T17:19:26.063Z,98598.88
2023-12-28T17:22:36.677Z,98606.25
2023-12-28T17:25:53.761Z,98596.97
2023-12-28T17:29:08.314Z,98597.44
2023-12-28T17:32:17.484Z,98594.63
2023-12-28T17:35:23.993Z,98607.47
2023-12-28T17:38:30.528Z,98595.16
2023-12-28T17:41:44.169Z,98592.03
2023-12-28T17:44:58.418Z,98598.41
2023-12-28T17:48:10.906Z,98596.41
2023-12-28T17:51:18.322Z,98590.78
2023-12-28T17:54:24.170Z,98600.75
2023-12-28T17:57:30.767Z,98607.50
2023-12-28T18:00:35.867Z,98603.16
2023-12-28T18:03:40.842Z,98610.53
2023-12-28T18:06:46.021Z,98615.78
2023-12-28T18:09:51.872Z,98614.47
